createdAt,value
2018-04-02T00:00:30.919Z,9.73
2018-04-02T00:02:58.383Z,10.13
2018-04-02T00:05:25.839Z,10.98
2018-04-02T00:07:53.397Z,10.00
2018-04-02T00:10:20.859Z,10.98
2018-04-02T00:12:48.470Z,10.30
2018-04-02T00:15:16.063Z,10.70
2018-04-02T00:17:43.690Z,11.77
2018-04-02T00:20:11.825Z,11.43
2018-04-02T00:22:39.661Z,10.27
2018-04-02T00:25:07.114Z,11.18
2018-04-02T00:27:34.879Z,10.93
2018-04-02T00:30:02.503Z,10.75
2018-04-02T00:32:29.993Z,11.35
2018-04-02T00:34:57.500Z,12.02
2018-04-02T00:37:24.936Z,10.13
2018-04-02T00:39:52.375Z,11.12
2018-04-02T00:42:19.833Z,11.80
2018-04-02T00:44:47.391Z,10.63
2018-04-02T00:47:15.041Z,9.55
2018-04-02T00:49:42.501Z,10.55
2018-04-02T00:52:09.927Z,9.90
2018-04-02T00:54:37.411Z,11.50
2018-04-02T00:57:04.972Z,11.70
2018-04-02T00:59:32.439Z,10.98
2018-04-02T01:01:59.873Z,10.63
2018-04-02T01:04:27.299Z,10.18
2018-04-02T01:06:54.795Z,10.68
2018-04-02T01:09:22.232Z,10.30
2018-04-02T01:11:49.712Z,11.02
2018-04-02T01:14:17.165Z,11.90
2018-04-02T01:16:44.604Z,11.65
2018-04-02T01:19:12.036Z,10.90
2018-04-02T01:21:39.539Z,10.63
2018-04-02T01:24:07.299Z,11.20
2018-04-02T01:26:34.762Z,12.05
2018-04-02T01:29:02.410Z,12.15
2018-04-02T01:31:29.844Z,12.15
2018-04-02T01:33:57.343Z,12.25
2018-04-02T01:36:24.786Z,12.20
2018-04-02T01:38:52.231Z,13.50
2018-04-02T01:41:19.696Z,11.40
2018-04-02T01:43:47.131Z,12.02
2018-04-02T01:46:14.613Z,12.00
2018-04-02T01:48:42.165Z,12.37
2018-04-02T01:51:09.802Z,11.73
2018-04-02T01:53:37.389Z,13.45
2018-04-02T01:56:04.819Z,13.48
2018-04-02T01:58:32.308Z,13.27
2018-04-02T02:00:59.914Z,12.27
2018-04-02T02:03:28.112Z,13.45
2018-04-02T02:05:55.543Z,12.85
2018-04-02T02:08:22.971Z,13.25
2018-04-02T02:10:50.403Z,13.50
2018-04-02T02:13:17.835Z,11.77
2018-04-02T02:15:45.415Z,13.52
2018-04-02T02:18:12.867Z,13.80
2018-04-02T02:20:40.312Z,11.60
2018-04-02T02:23:07.730Z,12.75
2018-04-02T02:25:35.248Z,10.27
2018-04-02T02:28:02.673Z,13.07
2018-04-02T02:30:30.150Z,12.05
2018-04-02T02:32:57.605Z,11.95
2018-04-02T02:35:25.375Z,12.35
2018-04-02T02:37:52.820Z,11.15
2018-04-02T02:40:20.257Z,11.32
2018-04-02T02:42:47.733Z,12.10
2018-04-02T02:45:15.193Z,12.40
2018-04-02T02:47:42.819Z,12.50
2018-04-02T02:50:10.414Z,14.00
2018-04-02T02:52:38.077Z,13.15
2018-04-02T02:55:05.509Z,12.75
2018-04-02T02:57:33.090Z,11.82
2018-04-02T03:00:00.553Z,12.30
2018-04-02T03:02:28.320Z,12.15
2018-04-02T03:04:55.949Z,12.40
2018-04-02T03:07:23.444Z,11.38
2018-04-02T03:09:50.893Z,12.43
2018-04-02T03:12:18.333Z,12.10
2018-04-02T03:14:45.903Z,11.27
2018-04-02T03:17:13.354Z,11.48
2018-04-02T03:19:40.970Z,11.95
2018-04-02T03:22:09.188Z,11.05
2018-04-02T03:24:36.615Z,11.70
2018-04-02T03:27:04.046Z,11.73
2018-04-02T03:29:31.556Z,11.85
2018-04-02T03:31:59.316Z,11.43
2018-04-02T03:34:26.774Z,11.43
2018-04-02T03:36:54.395Z,10.95
2018-04-02T03:39:22.610Z,11.27
2018-04-02T03:41:50.247Z,13.10
2018-04-02T03:44:17.736Z,11.55
2018-04-02T03:46:45.164Z,11.20
2018-04-02T03:49:12.740Z,12.68
2018-04-02T03:51:40.363Z,12.07
2018-04-02T03:54:07.879Z,11.82
2018-04-02T03:56:35.421Z,11.77
2018-04-02T03:59:02.876Z,10.73
2018-04-02T04:01:30.495Z,11.82
2018-04-02T04:03:58.702Z,12.60
2018-04-02T04:06:26.362Z,11.55
2018-04-02T04:08:53.835Z,12.32
2018-04-02T04:11:21.294Z,10.85
2018-04-02T04:13:48.729Z,11.45
2018-04-02T04:16:16.285Z,13.05
2018-04-02T04:18:43.728Z,12.20
2018-04-02T04:21:11.208Z,12.23
2018-04-02T04:23:38.639Z,11.63
2018-04-02T04:26:06.096Z,12.95
2018-04-02T04:28:33.510Z,12.10
2018-04-02T04:31:00.951Z,14.25
2018-04-02T04:33:28.379Z,12.48
2018-04-02T04:35:55.937Z,12.02
2018-04-02T04:38:23.352Z,12.75
2018-04-02T04:40:51.056Z,13.77
2018-04-02T04:43:18.515Z,12.25
2018-04-02T04:45:45.987Z,11.73
2018-04-02T04:48:13.538Z,10.77
2018-04-02T04:50:41.188Z,10.00
2018-04-02T04:53:08.656Z,10.95
2018-04-02T04:55:36.099Z,11.00
2018-04-02T04:58:03.521Z,10.88
2018-04-02T05:00:31.727Z,12.50
2018-04-02T05:02:59.209Z,11.35
2018-04-02T05:05:26.870Z,11.30
2018-04-02T05:07:54.418Z,11.30
2018-04-02T05:10:22.758Z,11.73
2018-04-02T05:12:50.236Z,9.35
2018-04-02T05:15:17.704Z,10.35
2018-04-02T05:17:45.126Z,11.95
2018-04-02T05:20:12.644Z,9.75
2018-04-02T05:22:41.819Z,11.05
2018-04-02T05:25:09.368Z,11.45
2018-04-02T05:27:36.798Z,9.63
2018-04-02T05:30:04.210Z,11.52
2018-04-02T05:32:31.649Z,11.85
2018-04-02T05:34:59.202Z,13.60
2018-04-02T05:37:26.702Z,12.60
2018-04-02T05:39:54.102Z,12.70
2018-04-02T05:42:21.573Z,11.95
2018-04-02T05:44:49.026Z,14.15
2018-04-02T05:47:16.511Z,12.50
2018-04-02T05:49:44.222Z,12.75
2018-04-02T05:52:11.641Z,13.40
2018-04-02T05:54:39.063Z,13.48
2018-04-02T05:57:06.810Z,13.90
2018-04-02T05:59:34.371Z,12.82
2018-04-02T06:02:01.817Z,11.95
2018-04-02T06:04:29.289Z,13.50
2018-04-02T06:06:56.745Z,15.10
2018-04-02T06:09:24.158Z,13.13
2018-04-02T06:11:51.588Z,12.88
2018-04-02T06:14:19.018Z,13.80
2018-04-02T06:16:46.702Z,14.50
2018-04-02T06:19:14.223Z,12.52
2018-04-02T06:21:41.778Z,13.88
2018-04-02T06:24:09.184Z,13.60
2018-04-02T06:26:36.613Z,13.48
2018-04-02T06:29:04.058Z,14.30
2018-04-02T06:31:31.622Z,14.02
2018-04-02T06:33:59.375Z,12.65
2018-04-02T06:36:26.826Z,12.82
2018-04-02T06:38:54.285Z,13.53
2018-04-02T06:41:21.709Z,15.10
2018-04-02T06:43:49.205Z,12.93
2018-04-02T06:46:16.650Z,13.98
2018-04-02T06:48:44.078Z,13.85
2018-04-02T06:51:11.568Z,16.83
2018-04-02T06:53:38.996Z,13.43
2018-04-02T06:56:06.423Z,14.05
2018-04-02T06:58:33.863Z,13.43
2018-04-02T07:01:01.289Z,13.00
2018-04-02T07:03:28.793Z,13.30
2018-04-02T07:05:56.213Z,14.05
2018-04-02T07:08:23.758Z,12.57
2018-04-02T07:10:51.214Z,14.63
2018-04-02T07:13:18.688Z,12.82
2018-04-02T07:15:46.299Z,13.10
2018-04-02T07:18:13.791Z,13.62
2018-04-02T07:20:41.215Z,12.90
2018-04-02T07:23:08.718Z,12.93
2018-04-02T07:25:36.251Z,12.52
2018-04-02T07:28:03.667Z,12.68
2018-04-02T07:30:31.218Z,13.23
2018-04-02T07:32:58.644Z,11.65
2018-04-02T07:35:26.263Z,11.93
2018-04-02T07:37:53.691Z,11.12
2018-04-02T07:40:21.891Z,11.32
2018-04-02T07:42:49.314Z,11.25
2018-04-02T07:45:16.756Z,10.13
2018-04-02T07:47:45.130Z,11.43
2018-04-02T07:50:12.578Z,11.52
2018-04-02T07:52:40.042Z,11.12
2018-04-02T07:55:07.458Z,11.00
2018-04-02T07:57:35.036Z,10.45
2018-04-02T08:00:02.492Z,10.35
2018-04-02T08:02:29.909Z,9.68
2018-04-02T08:04:57.344Z,9.25
2018-04-02T08:07:25.595Z,10.50
2018-04-02T08:09:53.028Z,11.80
2018-04-02T08:12:20.568Z,10.13
2018-04-02T08:14:48.015Z,10.68
2018-04-02T08:17:15.528Z,11.75
2018-04-02T08:19:42.952Z,9.38
2018-04-02T08:22:10.427Z,9.40
2018-04-02T08:24:37.859Z,9.55
2018-04-02T08:27:05.444Z,8.45
2018-04-02T08:29:32.874Z,9.83
2018-04-02T08:32:00.299Z,9.50
2018-04-02T08:34:27.796Z,8.55
2018-04-02T08:36:55.227Z,9.13
2018-04-02T08:39:22.650Z,8.97
2018-04-02T08:41:50.080Z,8.47
2018-04-02T08:44:17.563Z,9.17
2018-04-02T08:46:45.015Z,7.62
2018-04-02T08:49:12.435Z,8.07
2018-04-02T08:51:40.276Z,9.93
2018-04-02T08:54:08.473Z,9.10
2018-04-02T08:56:36.048Z,9.50
2018-04-02T08:59:03.478Z,9.70
2018-04-02T09:01:30.911Z,8.53
2018-04-02T09:03:58.433Z,8.87
2018-04-02T09:06:25.963Z,8.73
2018-04-02T09:08:53.492Z,7.60
2018-04-02T09:11:20.913Z,7.00
2018-04-02T09:13:48.548Z,6.97
2018-04-02T09:16:16.087Z,7.13
2018-04-02T09:18:43.526Z,6.77
2018-04-02T09:21:10.939Z,7.20
2018-04-02T09:23:38.373Z,7.27
2018-04-02T09:26:05.924Z,7.33
2018-04-02T09:28:33.378Z,7.60
2018-04-02T09:31:01.016Z,6.83
2018-04-02T09:33:28.499Z,7.43
2018-04-02T09:35:55.919Z,8.50
2018-04-02T09:38:23.375Z,7.07
2018-04-02T09:40:50.803Z,6.77
2018-04-02T09:43:19.037Z,7.83
2018-04-02T09:45:46.468Z,8.53
2018-04-02T09:48:13.895Z,7.93
2018-04-02T09:50:41.335Z,7.67
2018-04-02T09:53:08.856Z,8.10
2018-04-02T09:55:36.289Z,7.83
2018-04-02T09:58:03.769Z,7.67
2018-04-02T10:00:33.114Z,7.00
2018-04-02T10:03:00.857Z,6.97
2018-04-02T10:05:28.295Z,6.60
2018-04-02T10:07:55.756Z,6.37
2018-04-02T10:10:23.240Z,6.03
2018-04-02T10:12:50.660Z,6.00
2018-04-02T10:15:18.443Z,7.03
2018-04-02T10:17:46.063Z,7.67
2018-04-02T10:20:13.497Z,6.33
2018-04-02T10:22:41.806Z,6.17
2018-04-02T10:25:09.326Z,6.40
2018-04-02T10:27:37.888Z,6.67
2018-04-02T10:30:05.429Z,6.70
2018-04-02T10:32:32.940Z,6.23
2018-04-02T10:35:00.402Z,6.87
2018-04-02T10:37:28.588Z,6.47
2018-04-02T10:39:56.029Z,6.17
2018-04-02T10:42:23.562Z,6.10
2018-04-02T10:44:50.919Z,6.33
2018-04-02T10:47:19.113Z,6.00
2018-04-02T10:49:46.535Z,5.53
2018-04-02T10:52:15.667Z,3.70
2018-04-02T10:54:43.102Z,5.60
2018-04-02T10:57:11.295Z,4.70
2018-04-02T10:59:38.826Z,4.30
2018-04-02T11:02:06.227Z,3.93
2018-04-02T11:04:33.648Z,6.60
2018-04-02T11:07:01.082Z,3.70
2018-04-02T11:09:29.271Z,3.43
2018-04-02T11:11:56.989Z,3.73
2018-04-02T11:14:24.408Z,4.00
2018-04-02T11:16:51.887Z,4.07
2018-04-02T11:19:19.311Z,3.97
2018-04-02T11:21:46.804Z,3.40
2018-04-02T11:24:14.259Z,3.40
2018-04-02T11:26:42.008Z,3.70
2018-04-02T11:29:09.483Z,2.90
2018-04-02T11:31:36.930Z,3.33
2018-04-02T11:34:04.367Z,2.83
2018-04-02T11:36:31.791Z,2.80
2018-04-02T11:38:59.291Z,4.00
2018-04-02T11:41:26.716Z,3.10
2018-04-02T11:43:54.215Z,3.53
2018-04-02T11:46:21.672Z,4.43
2018-04-02T11:48:49.084Z,3.43
2018-04-02T11:51:16.510Z,3.50
2018-04-02T11:53:43.947Z,3.73
2018-04-02T11:56:11.436Z,3.43
2018-04-02T11:58:38.859Z,3.40
2018-04-02T12:01:06.282Z,3.00
2018-04-02T12:03:33.867Z,3.97
2018-04-02T12:06:01.319Z,3.80
2018-04-02T12:08:28.780Z,4.23
2018-04-02T12:10:56.234Z,3.00
2018-04-02T12:13:23.686Z,3.30
2018-04-02T12:15:51.106Z,2.90
2018-04-02T12:18:18.530Z,3.70
2018-04-02T12:20:46.008Z,3.00
2018-04-02T12:23:13.419Z,3.57
2018-04-02T12:25:40.848Z,3.73
2018-04-02T12:28:08.322Z,3.57
2018-04-02T12:30:35.792Z,3.50
2018-04-02T12:33:03.214Z,3.40
2018-04-02T12:35:30.627Z,3.17
2018-04-02T12:37:58.203Z,3.50
2018-04-02T12:40:25.706Z,3.30
2018-04-02T12:42:53.134Z,3.10
2018-04-02T12:45:20.556Z,2.90
2018-04-02T12:47:48.096Z,3.07
2018-04-02T12:50:15.721Z,3.17
2018-04-02T12:52:43.299Z,2.90
2018-04-02T12:55:10.756Z,3.03
2018-04-02T12:57:38.180Z,3.70
2018-04-02T13:00:05.601Z,3.30
2018-04-02T13:02:33.019Z,3.10
2018-04-02T13:05:00.583Z,3.20
2018-04-02T13:07:28.012Z,3.30
2018-04-02T13:09:55.481Z,3.13
2018-04-02T13:12:22.981Z,2.90
2018-04-02T13:14:50.575Z,3.70
2018-04-02T13:17:18.770Z,3.43
2018-04-02T13:19:46.213Z,3.10
2018-04-02T13:22:13.627Z,2.70
2018-04-02T13:24:41.143Z,3.30
2018-04-02T13:27:08.612Z,2.93
2018-04-02T13:29:36.049Z,3.00
2018-04-02T13:32:03.446Z,3.20
2018-04-02T13:34:30.984Z,2.80
2018-04-02T13:36:58.390Z,2.87
2018-04-02T13:39:26.722Z,2.50
2018-04-02T13:41:54.269Z,2.93
2018-04-02T13:44:21.691Z,2.50
2018-04-02T13:46:49.122Z,2.50
2018-04-02T13:49:16.630Z,2.53
2018-04-02T13:51:44.039Z,3.23
2018-04-02T13:54:11.486Z,2.80
2018-04-02T13:56:39.042Z,2.47
2018-04-02T13:59:07.945Z,2.43
2018-04-02T14:01:35.380Z,2.37
2018-04-02T14:04:02.910Z,3.07
2018-04-02T14:06:30.332Z,2.70
2018-04-02T14:08:57.755Z,2.40
2018-04-02T14:11:25.179Z,2.90
2018-04-02T14:13:52.648Z,2.13
2018-04-02T14:16:20.058Z,2.40
2018-04-02T14:18:47.483Z,2.10
2018-04-02T14:21:15.064Z,2.60
2018-04-02T14:23:42.498Z,2.40
2018-04-02T14:26:09.920Z,1.73
2018-04-02T14:28:37.365Z,1.70
2018-04-02T14:31:04.979Z,2.47
2018-04-02T14:33:32.585Z,1.73
2018-04-02T14:36:00.077Z,2.10
2018-04-02T14:38:27.521Z,2.10
2018-04-02T14:40:55.063Z,2.10
2018-04-02T14:43:22.528Z,2.70
2018-04-02T14:45:49.934Z,2.20
2018-04-02T14:48:17.346Z,2.30
2018-04-02T14:50:44.905Z,1.77
2018-04-02T14:53:12.344Z,2.00
2018-04-02T14:55:39.759Z,1.87
2018-04-02T14:58:07.170Z,2.03
2018-04-02T15:00:34.587Z,1.93
2018-04-02T15:03:03.091Z,1.83
2018-04-02T15:05:30.507Z,2.30
2018-04-02T15:07:57.918Z,2.50
2018-04-02T15:10:25.455Z,1.70
2018-04-02T15:12:52.908Z,2.30
2018-04-02T15:15:20.315Z,1.90
2018-04-02T15:17:47.823Z,1.90
2018-04-02T15:20:15.241Z,1.90
2018-04-02T15:22:42.737Z,1.90
2018-04-02T15:25:10.185Z,1.90
2018-04-02T15:27:37.594Z,1.67
2018-04-02T15:30:05.091Z,1.97
2018-04-02T15:32:32.502Z,1.77
2018-04-02T15:35:00.016Z,1.90
2018-04-02T15:37:27.480Z,2.50
2018-04-02T15:39:54.922Z,2.20
2018-04-02T15:42:22.347Z,1.90
2018-04-02T15:44:49.758Z,2.00
2018-04-02T15:47:17.295Z,2.07
2018-04-02T15:49:44.753Z,1.93
2018-04-02T15:52:12.163Z,1.90
2018-04-02T15:54:40.494Z,2.43
2018-04-02T15:57:07.911Z,2.27
2018-04-02T15:59:35.403Z,1.97
2018-04-02T16:02:02.829Z,2.10
2018-04-02T16:04:31.007Z,1.90
2018-04-02T16:06:58.427Z,2.13
2018-04-02T16:09:25.940Z,2.47
2018-04-02T16:11:53.360Z,2.33
2018-04-02T16:14:21.686Z,1.90
2018-04-02T16:16:49.224Z,2.33
2018-04-02T16:19:16.683Z,2.13
2018-04-02T16:21:44.103Z,2.70
2018-04-02T16:24:11.600Z,3.00
2018-04-02T16:26:39.152Z,2.30
2018-04-02T16:29:06.819Z,2.40
2018-04-02T16:31:35.664Z,2.60
2018-04-02T16:34:03.273Z,2.20
2018-04-02T16:36:30.728Z,2.70
2018-04-02T16:38:58.142Z,3.03
2018-04-02T16:41:25.564Z,2.67
2018-04-02T16:43:52.993Z,2.87
2018-04-02T16:46:20.556Z,2.60
2018-04-02T16:48:48.008Z,3.57
2018-04-02T16:51:15.463Z,3.37
2018-04-02T16:53:42.922Z,3.60
2018-04-02T16:56:10.335Z,3.20
2018-04-02T16:58:37.827Z,3.10
2018-04-02T17:01:05.253Z,2.70
2018-04-02T17:03:32.686Z,3.00
2018-04-02T17:06:00.197Z,2.63
2018-04-02T17:08:27.612Z,2.33
2018-04-02T17:10:55.019Z,1.77
2018-04-02T17:13:22.443Z,2.13
2018-04-02T17:15:50.056Z,1.90
2018-04-02T17:18:17.477Z,2.00
2018-04-02T17:20:44.887Z,2.10
2018-04-02T17:23:12.308Z,1.90
2018-04-02T17:25:39.814Z,2.17
2018-04-02T17:28:07.343Z,2.00
2018-04-02T17:30:36.271Z,2.30
2018-04-02T17:33:03.761Z,1.93
2018-04-02T17:35:31.179Z,2.20
2018-04-02T17:37:58.714Z,2.20
2018-04-02T17:40:27.790Z,2.03
2018-04-02T17:42:55.427Z,1.93
2018-04-02T17:45:22.871Z,2.47
2018-04-02T17:47:50.295Z,2.10
2018-04-02T17:50:17.711Z,2.53
2018-04-02T17:52:45.143Z,2.00
2018-04-02T17:55:12.571Z,2.60
2018-04-02T17:57:39.991Z,2.30
2018-04-02T18:00:07.415Z,2.40
2018-04-02T18:02:34.997Z,2.40
2018-04-02T18:05:02.441Z,3.17
2018-04-02T18:07:29.897Z,2.20
2018-04-02T18:09:57.643Z,2.43
2018-04-02T18:12:25.047Z,2.77
2018-04-02T18:14:52.656Z,2.70
2018-04-02T18:17:20.122Z,5.10
2018-04-02T18:19:47.586Z,7.13
2018-04-02T18:22:15.002Z,17.13
2018-04-02T18:24:42.497Z,19.37
2018-04-02T18:27:09.947Z,15.30
2018-04-02T18:29:37.584Z,19.87
2018-04-02T18:32:05.072Z,10.97
2018-04-02T18:34:32.616Z,7.07
2018-04-02T18:37:00.044Z,7.30
2018-04-02T18:39:27.463Z,11.83
2018-04-02T18:41:54.987Z,18.80
2018-04-02T18:44:22.404Z,31.03
2018-04-02T18:46:49.902Z,23.13
2018-04-02T18:49:17.360Z,11.63
2018-04-02T18:51:44.771Z,5.60
2018-04-02T18:54:12.265Z,11.67
2018-04-02T18:56:39.691Z,4.30
2018-04-02T18:59:07.138Z,3.63
2018-04-02T19:01:34.712Z,3.00
2018-04-02T19:04:02.132Z,2.67
2018-04-02T19:06:29.541Z,4.00
2018-04-02T19:08:56.971Z,3.57
2018-04-02T19:11:24.387Z,2.27
2018-04-02T19:13:51.826Z,2.60
2018-04-02T19:16:19.243Z,3.17
2018-04-02T19:18:46.682Z,2.63
2018-04-02T19:21:14.147Z,2.60
2018-04-02T19:23:42.551Z,2.43
2018-04-02T19:26:09.991Z,2.80
2018-04-02T19:28:37.583Z,2.73
2018-04-02T19:31:05.300Z,2.67
2018-04-02T19:33:32.704Z,2.43
2018-04-02T19:36:00.159Z,2.90
2018-04-02T19:38:27.580Z,2.80
2018-04-02T19:40:55.837Z,3.20
2018-04-02T19:43:23.242Z,3.83
2018-04-02T19:45:50.690Z,3.60
2018-04-02T19:48:18.112Z,4.60
2018-04-02T19:50:45.627Z,4.10
2018-04-02T19:53:13.060Z,2.77
2018-04-02T19:55:40.495Z,3.83
2018-04-02T19:58:07.921Z,3.60
2018-04-02T20:00:35.418Z,3.73
2018-04-02T20:03:02.833Z,3.90
2018-04-02T20:05:30.263Z,4.10
2018-04-02T20:07:57.808Z,4.57
2018-04-02T20:10:25.452Z,3.93
2018-04-02T20:12:52.911Z,3.87
2018-04-02T20:15:20.863Z,3.63
2018-04-02T20:17:48.451Z,3.70
2018-04-02T20:20:15.996Z,4.73
2018-04-02T20:22:43.649Z,5.17
2018-04-02T20:25:11.099Z,4.63
2018-04-02T20:27:39.457Z,4.10
2018-04-02T20:30:07.680Z,3.97
2018-04-02T20:32:35.145Z,5.50
2018-04-02T20:35:02.614Z,4.63
2018-04-02T20:37:30.087Z,5.60
2018-04-02T20:39:58.297Z,4.33
2018-04-02T20:42:25.767Z,4.57
2018-04-02T20:44:53.226Z,4.83
2018-04-02T20:47:20.695Z,4.63
2018-04-02T20:49:48.166Z,5.17
2018-04-02T20:52:15.617Z,5.50
2018-04-02T20:54:43.065Z,6.20
2018-04-02T20:57:10.501Z,6.13
2018-04-02T20:59:37.951Z,5.20
2018-04-02T21:02:05.385Z,6.07
2018-04-02T21:04:32.862Z,5.43
2018-04-02T21:07:00.293Z,4.53
2018-04-02T21:09:28.529Z,5.10
2018-04-02T21:11:59.920Z,4.60
2018-04-02T21:14:28.142Z,4.60
2018-04-02T21:16:55.594Z,4.27
2018-04-02T21:19:23.049Z,5.00
2018-04-02T21:21:50.494Z,3.67
2018-04-02T21:24:17.963Z,4.00
2018-04-02T21:26:45.531Z,4.07
2018-04-02T21:29:12.985Z,3.20
2018-04-02T21:31:40.491Z,3.60
2018-04-02T21:34:07.937Z,2.37
2018-04-02T21:36:36.154Z,3.13
2018-04-02T21:39:03.597Z,2.63
2018-04-02T21:41:31.041Z,2.97
2018-04-02T21:43:58.469Z,3.70
2018-04-02T21:46:25.937Z,2.80
2018-04-02T21:48:53.365Z,3.27
2018-04-02T21:51:20.815Z,2.73
2018-04-02T21:53:48.246Z,2.97
2018-04-02T21:56:15.751Z,3.50
2018-04-02T21:58:43.197Z,4.00
2018-04-02T22:01:10.705Z,3.30
2018-04-02T22:03:38.173Z,4.27
2018-04-02T22:06:05.642Z,3.47
2018-04-02T22:08:39.461Z,3.33
2018-04-02T22:11:06.892Z,3.67
2018-04-02T22:13:36.275Z,4.17
2018-04-02T22:16:04.697Z,5.43
2018-04-02T22:18:32.144Z,5.33
2018-04-02T22:20:59.585Z,3.50
2018-04-02T22:23:27.013Z,3.30
2018-04-02T22:25:54.427Z,3.50
2018-04-02T22:28:21.876Z,3.50
2018-04-02T22:30:49.287Z,3.30
2018-04-02T22:33:16.828Z,3.33
2018-04-02T22:35:44.248Z,3.73
2018-04-02T22:38:11.675Z,3.40
2018-04-02T22:40:39.856Z,3.07
2018-04-02T22:43:07.279Z,3.30
2018-04-02T22:45:34.701Z,3.70
2018-04-02T22:48:02.139Z,3.97
2018-04-02T22:50:29.552Z,3.50
2018-04-02T22:52:57.087Z,3.60
2018-04-02T22:55:24.508Z,4.07
2018-04-02T22:57:51.963Z,4.00
2018-04-02T23:00:19.395Z,4.10
2018-04-02T23:02:47.591Z,3.97
2018-04-02T23:05:15.012Z,3.50
2018-04-02T23:07:42.439Z,3.57
2018-04-02T23:10:09.855Z,3.30
2018-04-02T23:12:37.271Z,3.20
2018-04-02T23:15:04.814Z,3.30
2018-04-02T23:17:32.231Z,3.50
2018-04-02T23:19:59.815Z,3.20
2018-04-02T23:22:39.019Z,3.77
2018-04-02T23:25:06.616Z,3.50
2018-04-02T23:27:34.035Z,3.00
2018-04-02T23:30:01.461Z,3.53
2018-04-02T23:32:29.652Z,3.90
2018-04-02T23:34:57.077Z,3.27
2018-04-02T23:37:24.500Z,4.10
2018-04-02T23:39:52.053Z,3.60
2018-04-02T23:42:19.471Z,4.00
2018-04-02T23:44:46.903Z,4.00
2018-04-02T23:47:14.321Z,3.37
2018-04-02T23:49:41.883Z,3.40
2018-04-02T23:52:09.303Z,3.47
